Time;durP1;ratioP1;P1;durP2;ratioP2;P2;SDS_P1;SDS_P2;PMS_P1;PMS_P2;Temp;Humidity;BMP_temperature;BMP_pressure;BME280_temperature;BME280_humidity;BME280_pressure;Samples;Min_cycle;Max_cycle;Signal;HPM_P1;HPM_P2
2021/05/30 00:01:15;;;;;;;8.13;5.25;;;;;;;7.85;83.73;96963.22;127867;1101;22787;-88
2021/05/30 00:03:45;;;;;;;8.85;5.48;;;;;;;7.89;83.50;96962.48;127875;1101;23960;-88
2021/05/30 00:06:15;;;;;;;8.75;5.50;;;;;;;7.92;83.38;96959.34;127863;1096;27124;-89
2021/05/30 00:08:45;;;;;;;7.93;5.45;;;;;;;7.96;83.03;96959.63;127849;1101;25477;-89
2021/05/30 00:11:15;;;;;;;8.90;5.68;;;;;;;7.95;83.11;96950.11;127873;1100;22756;-88
2021/05/30 00:13:45;;;;;;;6.50;5.08;;;;;;;7.92;83.43;96953.27;127839;1100;22787;-88
2021/05/30 00:16:15;;;;;;;8.53;5.18;;;;;;;7.91;83.24;96951.67;127868;1096;26257;-88
2021/05/30 00:18:45;;;;;;;9.83;6.10;;;;;;;7.91;83.24;96955.11;127879;1100;24523;-89
2021/05/30 00:21:15;;;;;;;8.43;5.37;;;;;;;7.94;83.00;96956.45;127830;1096;26092;-88
2021/05/30 00:23:45;;;;;;;10.48;5.58;;;;;;;7.99;82.92;96957.27;127882;1100;23585;-88
2021/05/30 00:26:15;;;;;;;9.58;6.10;;;;;;;8.03;83.11;96954.94;127843;1101;27847;-89
2021/05/30 00:28:45;;;;;;;9.63;5.55;;;;;;;8.07;82.91;96955.22;127838;1095;30082;-89
2021/05/30 00:31:15;;;;;;;9.05;5.85;;;;;;;8.04;82.90;96954.69;127827;1101;22843;-89
2021/05/30 00:33:46;;;;;;;9.75;6.33;;;;;;;8.03;82.93;96952.30;127832;1097;36467;-89
2021/05/30 00:36:16;;;;;;;10.48;7.48;;;;;;;8.07;83.09;96949.94;127878;1100;22780;-89
2021/05/30 00:38:45;;;;;;;12.23;7.63;;;;;;;8.10;83.16;96959.98;127823;1100;23195;-89
2021/05/30 00:41:15;;;;;;;12.03;6.78;;;;;;;8.14;83.15;96955.78;127841;1101;24430;-89
2021/05/30 00:43:47;;;;;;;9.95;6.25;;;;;;;8.14;83.61;96955.78;127860;1096;27141;-88
2021/05/30 00:46:18;;;;;;;10.87;7.70;;;;;;;8.07;83.80;96944.66;127828;1100;23945;-88
2021/05/30 00:48:49;;;;;;;11.63;7.98;;;;;;;8.00;84.25;96955.42;127835;1100;24903;-87
2021/05/30 00:51:19;;;;;;;11.58;7.90;;;;;;;7.96;84.12;96949.86;127791;1101;33119;-87
2021/05/30 00:53:49;;;;;;;10.80;7.60;;;;;;;7.92;84.77;96942.70;127791;1100;22767;-93
2021/05/30 00:56:19;;;;;;;14.13;8.20;;;;;;;7.89;84.67;96948.50;127827;1100;25827;-88
2021/05/30 00:58:49;;;;;;;12.20;8.00;;;;;;;7.89;84.75;96953.78;127779;1100;22783;-90
2021/05/30 01:01:19;;;;;;;9.48;6.40;;;;;;;7.89;84.91;96956.41;127718;1100;24524;-92
2021/05/30 01:03:49;;;;;;;7.48;5.50;;;;;;;7.90;84.86;96952.73;127772;1100;23309;-88
2021/05/30 01:06:19;;;;;;;11.80;7.43;;;;;;;7.90;85.02;96958.01;127837;1096;22817;-88
2021/05/30 01:08:49;;;;;;;9.05;6.58;;;;;;;7.89;85.17;96961.70;127819;1101;23591;-88
2021/05/30 01:11:22;;;;;;;12.23;7.28;;;;;;;7.89;85.10;96949.29;127854;1100;24149;-88
2021/05/30 01:13:54;;;;;;;9.28;6.80;;;;;;;7.97;85.22;96951.45;127907;1100;22777;-87
2021/05/30 01:16:26;;;;;;;10.00;6.03;;;;;;;8.03;84.80;96949.66;127896;1100;24283;-88
2021/05/30 01:18:59;;;;;;;10.50;6.50;;;;;;;8.05;84.63;96947.55;127851;1100;23531;-87
2021/05/30 01:21:29;;;;;;;10.28;6.73;;;;;;;8.02;84.64;96954.14;127790;1101;60551;-88
2021/05/30 01:23:59;;;;;;;10.88;6.85;;;;;;;7.96;84.58;96955.14;127850;1101;26151;-87
2021/05/30 01:26:29;;;;;;;10.53;6.43;;;;;;;7.91;84.66;96956.95;127863;1101;22873;-86
2021/05/30 01:28:59;;;;;;;9.87;6.43;;;;;;;7.87;85.24;96961.13;127827;1101;22958;-88
2021/05/30 01:31:29;;;;;;;9.68;6.20;;;;;;;7.81;85.13;96957.66;127802;1100;22764;-89
2021/05/30 01:33:58;;;;;;;10.60;6.70;;;;;;;7.79;85.39;96948.41;127738;1101;24361;-91
2021/05/30 01:36:29;;;;;;;9.80;6.18;;;;;;;7.78;85.12;96952.89;127837;1101;26210;-88
2021/05/30 01:38:59;;;;;;;9.13;6.08;;;;;;;7.77;85.43;96948.66;127837;1101;22766;-88
2021/05/30 01:41:29;;;;;;;10.83;6.20;;;;;;;7.77;85.73;96950.50;127828;1100;22756;-88
2021/05/30 01:43:59;;;;;;;11.33;7.45;;;;;;;7.76;85.85;96954.19;127782;1101;51205;-88
2021/05/30 01:46:29;;;;;;;10.95;7.00;;;;;;;7.76;85.60;96951.55;127844;1095;26343;-89
2021/05/30 01:48:58;;;;;;;10.80;7.40;;;;;;;7.74;85.88;96955.24;127755;1095;26264;-91
2021/05/30 01:51:28;;;;;;;10.15;6.85;;;;;;;7.74;86.35;96949.97;127741;1096;26477;-89
2021/05/30 01:54:05;;;;;;;13.58;7.60;;;;;;;7.74;85.88;96947.33;127734;1095;25890;-90
2021/05/30 01:59:24;;;;;;;11.87;7.60;;;;;;;7.73;86.54;96958.91;127919;1101;35417;-89
2021/05/30 02:01:54;;;;;;;;;;;;;;;7.74;86.75;96954.42;127875;1100;22760;-89
2021/05/30 02:04:27;;;;;;;10.85;7.13;;;;;;;7.72;86.70;96959.16;127928;1101;22950;-89
2021/05/30 02:06:58;;;;;;;11.65;7.93;;;;;;;7.72;86.54;96952.03;127841;1101;22756;-89
2021/05/30 02:09:30;;;;;;;11.83;7.13;;;;;;;7.78;86.68;96954.73;127753;1101;23607;-90
2021/05/30 02:12:00;;;;;;;10.15;7.10;;;;;;;7.80;87.05;96957.91;127729;1095;25884;-89
2021/05/30 02:14:30;;;;;;;11.98;8.05;;;;;;;7.81;86.81;96957.66;127800;1095;25999;-88
2021/05/30 02:17:00;;;;;;;13.00;8.98;;;;;;;7.82;87.25;96951.33;127749;1101;22760;-89
2021/05/30 02:19:30;;;;;;;10.37;7.87;;;;;;;7.82;86.97;96956.61;127812;1101;24198;-87
2021/05/30 02:22:01;;;;;;;11.33;7.28;;;;;;;7.84;86.93;96953.72;127852;1101;22836;-91
2021/05/30 02:24:29;;;;;;;;;;;;;;;7.87;87.07;96953.20;127830;1100;25002;-89
2021/05/30 02:26:59;;;;;;;11.35;7.23;;;;;;;7.90;86.95;96961.44;127816;1101;23864;-87
2021/05/30 02:29:35;;;;;;;10.95;7.60;;;;;;;7.96;87.14;96959.63;127805;1100;24396;-87
2021/05/30 02:32:08;;;;;;;11.13;8.13;;;;;;;7.98;87.04;96960.95;127780;1096;27403;-87
2021/05/30 02:34:41;;;;;;;12.15;8.45;;;;;;;7.99;87.43;96956.47;127734;1101;24161;-91
2021/05/30 02:37:12;;;;;;;12.58;8.30;;;;;;;8.00;87.16;96965.98;127775;1101;23180;-87
2021/05/30 02:39:43;;;;;;;11.03;7.85;;;;;;;8.01;87.31;96957.02;127756;1101;24217;-88
2021/05/30 02:42:13;;;;;;;12.83;9.38;;;;;;;7.97;87.68;96956.73;127754;1100;22785;-88
2021/05/30 02:44:44;;;;;;;12.70;9.10;;;;;;;7.98;87.68;96957.52;127743;1101;23926;-94
2021/05/30 02:47:14;;;;;;;11.70;8.88;;;;;;;7.97;87.66;96956.73;127776;1100;24096;-89
2021/05/30 02:49:44;;;;;;;14.18;8.93;;;;;;;7.96;87.46;96965.70;127764;1100;24571;-91
2021/05/30 02:52:14;;;;;;;13.25;9.05;;;;;;;7.96;87.40;96963.06;127769;1096;31649;-88
2021/05/30 02:54:44;;;;;;;11.75;8.58;;;;;;;7.94;87.31;96957.24;127839;1101;24252;-89
2021/05/30 02:57:14;;;;;;;13.33;8.45;;;;;;;7.97;87.72;96953.30;127819;1096;26505;-88
2021/05/30 02:59:44;;;;;;;10.48;6.83;;;;;;;8.03;87.45;96961.02;127800;1101;42714;-89
2021/05/30 03:02:14;;;;;;;10.03;6.80;;;;;;;8.09;87.35;96953.91;127822;1100;24828;-89
2021/05/30 03:04:44;;;;;;;13.75;8.80;;;;;;;8.17;87.16;96958.73;127850;1100;24094;-89
2021/05/30 03:07:14;;;;;;;12.05;8.18;;;;;;;8.22;87.16;96953.48;127865;1100;23482;-89
2021/05/30 03:09:44;;;;;;;12.63;9.73;;;;;;;8.21;87.10;96959.81;127836;1100;22822;-86
2021/05/30 03:12:16;;;;;;;12.58;9.80;;;;;;;8.22;87.17;96953.48;127836;1096;26372;-86
2021/05/30 03:14:46;;;;;;;10.03;8.15;;;;;;;8.24;86.81;96955.86;127848;1101;24669;-87
2021/05/30 03:17:15;;;;;;;13.28;8.90;;;;;;;8.24;87.06;96959.30;127807;1101;23624;-88
2021/05/30 03:19:45;;;;;;;14.73;9.38;;;;;;;8.22;86.70;96952.69;127853;1101;24515;-91
2021/05/30 03:22:15;;;;;;;8.13;6.13;;;;;;;8.26;86.92;96965.12;127885;1101;23129;-87
2021/05/30 03:24:45;;;;;;;13.25;9.48;;;;;;;8.29;86.84;96955.89;127863;1097;23954;-87
2021/05/30 03:27:15;;;;;;;12.30;8.78;;;;;;;8.36;87.04;96960.99;127849;1100;22792;-87
2021/05/30 03:29:45;;;;;;;14.35;9.73;;;;;;;8.40;86.91;96956.78;127792;1101;24113;-88
2021/05/30 03:32:15;;;;;;;12.28;9.33;;;;;;;8.44;86.75;96961.29;127857;1101;22916;-87
2021/05/30 03:34:45;;;;;;;12.50;9.00;;;;;;;8.47;86.57;96958.16;127828;1101;27172;-88
2021/05/30 03:37:14;;;;;;;12.97;8.83;;;;;;;8.47;86.32;96960.01;127828;1096;26293;-88
2021/05/30 03:39:45;;;;;;;11.73;8.88;;;;;;;8.45;86.57;96959.47;128066;1101;24651;-90
2021/05/30 03:42:18;;;;;;;;;;;;;;;8.42;86.82;96968.68;128245;1101;27815;-90
2021/05/30 03:44:49;;;;;;;11.43;8.58;;;;;;;8.42;86.72;96959.95;127822;1101;22768;-92
2021/05/30 03:47:19;;;;;;;12.25;9.63;;;;;;;8.47;86.64;96971.38;127735;1101;23797;-93
2021/05/30 03:49:49;;;;;;;13.37;8.93;;;;;;;8.54;87.04;96965.84;127752;1101;22784;-91
2021/05/30 03:52:19;;;;;;;13.67;10.33;;;;;;;8.56;86.66;96976.95;127770;1101;26381;-91
2021/05/30 03:54:49;;;;;;;11.70;8.80;;;;;;;8.56;86.55;96975.11;127727;1101;23689;-89
2021/05/30 03:57:19;;;;;;;16.33;10.80;;;;;;;8.52;86.51;96975.88;127752;1096;27097;-92
2021/05/30 03:59:49;;;;;;;14.13;10.43;;;;;;;8.51;86.63;96980.38;127772;1101;26045;-88
2021/05/30 04:02:18;;;;;;;14.73;10.90;;;;;;;8.55;86.52;96984.08;127874;1097;26229;-89
2021/05/30 04:04:48;;;;;;;12.93;9.63;;;;;;;8.58;86.62;96980.13;127871;1101;23192;-89
2021/05/30 04:07:18;;;;;;;12.70;10.45;;;;;;;8.62;86.77;96979.38;127847;1101;29312;-86
2021/05/30 04:09:48;;;;;;;14.65;10.98;;;;;;;8.72;86.63;96978.63;127790;1101;22773;-89
2021/05/30 04:12:18;;;;;;;12.90;9.63;;;;;;;8.82;86.89;96988.45;127819;1097;24053;-89
2021/05/30 04:14:48;;;;;;;12.18;8.88;;;;;;;8.83;86.85;96982.91;127779;1101;22767;-89
2021/05/30 04:17:18;;;;;;;11.80;8.83;;;;;;;8.89;86.33;96987.19;127877;1095;23724;-88
2021/05/30 04:19:48;;;;;;;13.58;9.88;;;;;;;9.04;86.61;96986.45;127823;1100;22784;-88
2021/05/30 04:22:18;;;;;;;14.80;9.83;;;;;;;9.15;86.07;96982.80;127860;1094;28598;-88
2021/05/30 04:24:48;;;;;;;15.03;10.73;;;;;;;9.24;86.24;96980.42;127898;1097;26475;-88
2021/05/30 04:27:18;;;;;;;13.10;10.25;;;;;;;9.20;85.99;96980.16;127796;1101;37202;-90
2021/05/30 04:29:48;;;;;;;15.57;10.23;;;;;;;9.10;85.41;96987.26;127816;1101;24518;-90
2021/05/30 04:32:17;;;;;;;14.28;10.43;;;;;;;9.01;85.14;96986.98;127802;1101;38498;-89
2021/05/30 04:34:47;;;;;;;10.80;9.13;;;;;;;8.95;85.56;96982.70;127869;1101;23151;-87
2021/05/30 04:37:17;;;;;;;13.87;9.63;;;;;;;8.90;85.71;96980.05;127882;1101;24204;-88
2021/05/30 04:39:47;;;;;;;10.30;8.60;;;;;;;8.90;85.47;96983.48;127826;1101;23740;-88
2021/05/30 04:42:16;;;;;;;15.90;10.65;;;;;;;9.11;85.96;96978.27;127813;1096;24293;-88
2021/05/30 04:44:46;;;;;;;14.00;10.53;;;;;;;9.51;86.29;96986.32;127862;1101;23254;-88
2021/05/30 04:47:16;;;;;;;10.85;9.00;;;;;;;9.71;85.39;96985.58;127867;1101;23674;-89
2021/05/30 04:49:46;;;;;;;12.78;10.28;;;;;;;9.92;85.01;96991.67;127846;1101;25174;-89
2021/05/30 04:52:16;;;;;;;12.25;9.65;;;;;;;10.05;84.32;96991.16;127840;1101;30573;-89
2021/05/30 04:54:46;;;;;;;13.50;10.17;;;;;;;9.90;83.62;96987.70;127841;1100;24076;-89
2021/05/30 04:57:17;;;;;;;14.10;10.68;;;;;;;9.72;83.58;96997.75;127857;1101;23833;-89
2021/05/30 04:59:47;;;;;;;12.23;9.70;;;;;;;9.62;83.26;96996.94;127834;1095;22791;-90
2021/05/30 05:02:17;;;;;;;12.57;10.63;;;;;;;9.56;83.60;96992.67;127833;1101;31872;-90
2021/05/30 05:04:47;;;;;;;11.95;10.35;;;;;;;9.52;83.48;96989.77;127856;1101;22788;-87
2021/05/30 05:07:18;;;;;;;14.38;10.93;;;;;;;9.46;83.16;96994.26;127778;1100;25555;-87
2021/05/30 05:09:48;;;;;;;13.88;10.63;;;;;;;9.51;83.28;96990.82;127847;1096;26365;-88
2021/05/30 05:12:18;;;;;;;17.55;12.15;;;;;;;9.59;83.32;96998.26;127858;1101;24676;-88
2021/05/30 05:14:48;;;;;;;12.85;10.43;;;;;;;9.72;83.18;96991.67;127853;1101;22834;-89
2021/05/30 05:17:18;;;;;;;12.55;10.45;;;;;;;9.77;83.15;96991.66;127863;1101;24107;-87
2021/05/30 05:19:48;;;;;;;16.85;12.25;;;;;;;9.84;82.89;96994.83;127849;1101;23726;-87
2021/05/30 05:22:18;;;;;;;14.57;12.13;;;;;;;9.98;82.34;96993.25;127866;1101;25222;-88
2021/05/30 05:24:48;;;;;;;15.23;11.93;;;;;;;10.68;82.52;96994.27;127917;1101;38607;-89
2021/05/30 05:27:18;;;;;;;13.83;9.95;;;;;;;11.20;81.34;96976.33;127865;1101;25418;-89
2021/05/30 05:29:48;;;;;;;11.65;8.80;;;;;;;11.71;79.96;96995.44;127743;1101;57205;-90
2021/05/30 05:32:19;;;;;;;12.53;10.03;;;;;;;11.49;79.03;96997.69;127841;1101;22784;-89
2021/05/30 05:34:49;;;;;;;15.13;12.25;;;;;;;11.06;78.65;97000.00;127769;1101;24879;-90
2021/05/30 05:37:19;;;;;;;13.33;10.88;;;;;;;10.89;79.41;96999.54;127762;1097;26415;-90
2021/05/30 05:39:49;;;;;;;10.63;8.53;;;;;;;10.69;78.46;97003.81;127813;1101;22865;-91
2021/05/30 05:42:19;;;;;;;11.13;9.43;;;;;;;10.44;78.26;97008.39;127810;1101;25894;-90
2021/05/30 05:44:49;;;;;;;13.85;9.93;;;;;;;10.30;78.95;97011.58;127724;1101;23984;-92
2021/05/30 05:47:19;;;;;;;12.30;10.05;;;;;;;10.28;79.35;97015.56;127855;1101;33081;-89
2021/05/30 05:49:49;;;;;;;12.08;8.48;;;;;;;10.31;80.05;97022.98;127884;1101;22961;-90
2021/05/30 05:52:19;;;;;;;12.80;10.33;;;;;;;10.29;79.74;97020.59;127869;1101;25333;-90
2021/05/30 05:54:50;;;;;;;12.58;9.70;;;;;;;10.26;79.46;97017.66;127847;1101;22781;-87
2021/05/30 05:57:20;;;;;;;12.00;10.57;;;;;;;10.24;79.45;97017.13;127821;1096;41655;-92
2021/05/30 05:59:51;;;;;;;15.38;10.78;;;;;;;10.32;79.79;97019.27;125559;1101;2458044;-89
2021/05/30 06:02:21;;;;;;;8.93;7.50;;;;;;;10.52;79.35;97016.58;127832;1096;24267;-90
2021/05/30 06:04:52;;;;;;;10.43;8.83;;;;;;;10.65;79.02;97023.19;127941;1101;22744;-89
2021/05/30 06:07:23;;;;;;;11.83;9.95;;;;;;;10.75;78.83;97019.73;127918;1101;23095;-89
2021/05/30 06:09:53;;;;;;;12.63;9.43;;;;;;;10.68;78.23;97026.09;127891;1101;22780;-91
2021/05/30 06:12:23;;;;;;;13.68;10.35;;;;;;;10.57;78.25;97029.84;125704;1101;2496019;-91
2021/05/30 06:14:54;;;;;;;14.28;11.20;;;;;;;10.41;77.95;97030.90;127888;1101;24867;-89
2021/05/30 06:17:24;;;;;;;13.28;9.88;;;;;;;10.18;78.42;97036.72;127862;1101;25592;-89
2021/05/30 06:19:54;;;;;;;15.07;10.83;;;;;;;10.03;78.86;97027.70;127904;1101;24350;-87
2021/05/30 06:22:25;;;;;;;13.95;11.18;;;;;;;10.00;78.69;97030.89;127913;1101;22853;-87
2021/05/30 06:24:55;;;;;;;13.90;10.78;;;;;;;9.97;78.68;97041.19;127887;1101;25672;-96
2021/05/30 06:27:25;;;;;;;14.53;10.33;;;;;;;10.00;78.86;97030.89;127756;1101;23432;-95
2021/05/30 06:29:55;;;;;;;12.00;9.43;;;;;;;10.08;79.34;97033.00;127993;1101;32093;-90
2021/05/30 06:32:25;;;;;;;13.23;11.37;;;;;;;10.15;79.23;97026.66;127935;1101;30776;-90
2021/05/30 06:34:55;;;;;;;15.55;10.95;;;;;;;10.23;78.95;97036.74;127781;1101;47586;-90
2021/05/30 06:37:25;;;;;;;13.65;11.05;;;;;;;10.27;79.19;97037.80;127882;1101;24692;-94
2021/05/30 06:39:55;;;;;;;12.37;10.20;;;;;;;10.23;78.63;97040.19;127870;1101;24533;-91
2021/05/30 06:42:25;;;;;;;13.67;10.93;;;;;;;10.23;79.06;97039.39;127891;1096;54298;-89
2021/05/30 06:44:57;;;;;;;15.13;11.28;;;;;;;10.29;79.23;97044.45;127870;1101;23858;-90
2021/05/30 06:47:27;;;;;;;14.65;10.80;;;;;;;10.35;79.48;97042.58;128100;1096;26639;-91
2021/05/30 06:49:58;;;;;;;12.73;10.15;;;;;;;10.29;79.09;97049.74;128091;1101;30014;-90
2021/05/30 06:52:28;;;;;;;16.00;10.83;;;;;;;10.22;78.84;97053.70;128167;1101;23776;-90
2021/05/30 06:54:58;;;;;;;13.53;11.13;;;;;;;10.15;79.05;97053.16;128047;1101;25260;-89
2021/05/30 06:57:28;;;;;;;13.58;10.58;;;;;;;10.09;79.44;97050.48;128036;1101;33049;-90
2021/05/30 06:59:58;;;;;;;12.15;9.40;;;;;;;10.08;79.41;97061.34;128070;1101;23614;-88
2021/05/30 07:02:28;;;;;;;16.40;11.33;;;;;;;10.02;79.73;97065.06;127963;1095;25906;-89
2021/05/30 07:04:58;;;;;;;12.55;9.78;;;;;;;10.04;80.00;97053.14;127756;1101;23169;-90
2021/05/30 07:07:28;;;;;;;12.35;10.33;;;;;;;10.00;80.43;97057.38;127731;1101;23206;-90
2021/05/30 07:09:58;;;;;;;13.38;11.00;;;;;;;9.98;80.63;97064.77;127829;1101;22785;-89
2021/05/30 07:12:28;;;;;;;13.48;9.33;;;;;;;9.93;80.93;97061.33;127743;1101;22773;-91
2021/05/30 07:14:59;;;;;;;11.47;8.70;;;;;;;9.85;81.37;97059.97;127778;1101;24772;-89
2021/05/30 07:17:29;;;;;;;11.70;9.00;;;;;;;9.82;81.06;97061.30;127861;1101;23082;-91
2021/05/30 07:20:00;;;;;;;10.78;9.20;;;;;;;9.89;81.45;97066.36;127848;1101;22764;-91
2021/05/30 07:22:30;;;;;;;13.85;11.13;;;;;;;9.96;81.09;97068.73;127825;1101;23421;-91
2021/05/30 07:25:00;;;;;;;13.15;10.95;;;;;;;10.02;81.58;97076.45;127809;1101;22766;-90
2021/05/30 07:27:30;;;;;;;13.58;10.23;;;;;;;10.18;82.08;97068.52;127853;1101;24997;-91
2021/05/30 07:30:00;;;;;;;16.10;10.23;;;;;;;10.26;81.55;97068.00;127715;1101;22763;-91
2021/05/30 07:32:30;;;;;;;13.60;10.83;;;;;;;10.25;81.21;97077.02;127782;1097;23794;-91
2021/05/30 07:35:00;;;;;;;15.10;11.23;;;;;;;10.16;81.37;97066.13;127757;1101;25250;-90
2021/05/30 07:37:30;;;;;;;14.05;10.73;;;;;;;10.03;81.26;97078.03;127741;1101;24229;-90
2021/05/30 07:40:00;;;;;;;10.68;8.40;;;;;;;9.99;81.44;97081.45;127748;1096;26258;-91
2021/05/30 07:42:30;;;;;;;9.60;7.78;;;;;;;10.01;81.60;97082.80;127768;1101;23492;-91
2021/05/30 07:45:00;;;;;;;11.85;9.40;;;;;;;9.99;81.98;97079.63;127872;1100;25097;-91
2021/05/30 07:47:30;;;;;;;11.68;8.85;;;;;;;9.94;82.36;97073.51;127858;1097;26232;-91
2021/05/30 07:50:00;;;;;;;10.03;7.78;;;;;;;9.94;81.98;97082.25;127806;1101;24893;-90
2021/05/30 07:52:30;;;;;;;10.43;7.85;;;;;;;10.05;82.63;97081.22;127751;1101;22781;-89
2021/05/30 07:55:00;;;;;;;11.30;9.10;;;;;;;10.06;82.63;97085.45;127749;1101;22759;-89
2021/05/30 07:57:30;;;;;;;11.43;8.88;;;;;;;10.04;82.57;97082.27;127752;1101;23613;-88
2021/05/30 08:00:01;;;;;;;10.78;8.98;;;;;;;10.09;82.34;97092.07;127726;1101;23746;-89
2021/05/30 08:02:32;;;;;;;14.28;11.28;;;;;;;10.00;82.41;97089.16;127759;1101;22783;-89
2021/05/30 08:05:02;;;;;;;14.18;11.33;;;;;;;9.84;82.26;97090.16;127789;1101;25389;-90
2021/05/30 08:07:32;;;;;;;12.45;10.18;;;;;;;9.86;82.47;97093.38;127828;1101;25921;-89
2021/05/30 08:10:03;;;;;;;14.18;10.03;;;;;;;10.06;83.33;97092.60;127877;1101;24410;-85
2021/05/30 08:12:33;;;;;;;13.15;9.43;;;;;;;10.34;83.42;97094.78;127859;1101;22763;-86
2021/05/30 08:15:06;;;;;;;13.65;10.08;;;;;;;10.51;83.44;97094.52;127833;1101;24795;-86
2021/05/30 08:17:36;;;;;;;11.95;9.20;;;;;;;10.59;82.79;97094.00;127857;1101;24263;-88
2021/05/30 08:20:10;;;;;;;10.80;8.85;;;;;;;10.73;82.73;97090.81;127780;1101;22945;-86
2021/05/30 08:22:40;;;;;;;13.50;9.90;;;;;;;10.63;81.69;97097.70;127871;1096;27415;-89
2021/05/30 08:25:12;;;;;;;10.20;8.15;;;;;;;10.61;81.88;97091.08;127862;1101;23103;-88
2021/05/30 08:27:42;;;;;;;11.25;8.48;;;;;;;10.60;81.76;97089.49;127869;1101;24060;-92
2021/05/30 08:30:14;;;;;;;12.68;9.78;;;;;;;10.66;82.28;97102.47;127865;1097;23333;-89
2021/05/30 08:32:44;;;;;;;14.28;9.88;;;;;;;10.76;82.56;97096.37;128052;1101;22908;-90
2021/05/30 08:35:16;;;;;;;12.03;8.95;;;;;;;10.77;82.48;97097.16;127919;1101;29783;-92
2021/05/30 08:37:47;;;;;;;11.30;9.43;;;;;;;10.65;81.61;97098.23;127821;1101;22763;-90
2021/05/30 08:40:18;;;;;;;11.38;9.18;;;;;;;10.53;82.21;97092.39;127856;1101;22770;-90
2021/05/30 08:42:46;;;;;;;;;;;;;;;10.58;82.71;97102.22;127888;1101;22780;-90
2021/05/30 08:45:18;;;;;;;11.98;8.80;;;;;;;10.58;82.19;97094.27;127846;1101;43990;-89
2021/05/30 08:47:48;;;;;;;12.53;10.03;;;;;;;10.54;81.62;97104.59;127866;1101;24202;-91
2021/05/30 08:50:18;;;;;;;13.03;10.07;;;;;;;10.58;82.06;97102.22;127870;1096;25891;-88
2021/05/30 08:52:48;;;;;;;13.35;10.10;;;;;;;10.52;81.96;97109.36;127834;1101;22810;-90
2021/05/30 08:55:18;;;;;;;13.08;9.25;;;;;;;10.40;81.90;97120.22;127819;1096;47048;-89
2021/05/30 08:57:48;;;;;;;11.78;9.18;;;;;;;10.31;81.88;97121.03;127903;1101;22863;-88
2021/05/30 09:00:25;;;;;;;11.53;9.27;;;;;;;10.31;82.25;97126.33;127875;1101;22760;-89
2021/05/30 09:03:13;;;;;;;13.25;9.50;;;;;;;10.38;82.99;97132.95;127898;1101;52522;-89
2021/05/30 09:05:43;;;;;;;8.00;5.50;;;;;;;10.40;82.97;97127.38;127854;1101;22797;-89
2021/05/30 09:08:31;;;;;;;8.05;5.65;;;;;;;10.35;82.33;97127.38;127930;1097;31776;-88
2021/05/30 09:11:01;;;;;;;6.33;4.87;;;;;;;10.33;82.40;97124.20;127874;1101;22759;-89
2021/05/30 09:13:38;;;;;;;7.08;5.25;;;;;;;10.38;82.71;97124.99;127847;1096;24351;-87
2021/05/30 09:16:10;;;;;;;8.00;5.90;;;;;;;10.40;82.16;97127.38;127889;1100;27557;-87
2021/05/30 09:18:41;;;;;;;8.40;5.50;;;;;;;10.30;82.13;97125.53;127867;1101;22759;-88
2021/05/30 09:21:12;;;;;;;7.28;5.73;;;;;;;10.32;82.83;97122.61;127868;1101;23131;-86
2021/05/30 09:23:45;;;;;;;7.80;5.83;;;;;;;10.32;82.59;97123.41;127896;1101;22790;-89
2021/05/30 09:26:18;;;;;;;9.20;6.90;;;;;;;10.34;82.95;97120.49;127833;1101;30831;-89
2021/05/30 09:29:04;;;;;;;9.10;6.70;;;;;;;10.50;82.88;97126.59;127837;1101;22918;-88
2021/05/30 09:31:36;;;;;;;13.53;8.48;;;;;;;10.58;83.24;97118.13;127784;1101;22763;-93
2021/05/30 09:34:26;;;;;;;8.78;7.03;;;;;;;10.73;82.84;97126.08;127835;1101;23404;-89
2021/05/30 09:36:56;;;;;;;10.75;8.33;;;;;;;10.86;83.20;97122.89;127877;1101;25769;-89
2021/05/30 09:39:35;;;;;;;;;;;;;;;10.94;83.25;97118.89;127956;1101;23425;-89
2021/05/30 09:42:25;;;;;;;11.00;8.85;;;;;;;10.96;82.92;97119.41;127928;1101;23690;-88
2021/05/30 09:44:58;;;;;;;;;;;;;;;10.99;82.45;97116.25;128129;1101;22759;-89
2021/05/30 09:47:35;;;;;;;10.45;7.93;;;;;;;11.19;82.90;97120.70;128047;1101;33695;-89
2021/05/30 09:50:06;;;;;;;11.30;8.05;;;;;;;11.37;82.41;97120.11;128002;1101;49941;-89
2021/05/30 09:52:41;;;;;;;8.13;5.40;;;;;;;11.21;80.84;97110.61;128000;1101;22760;-89
2021/05/30 09:55:16;;;;;;;9.78;7.20;;;;;;;10.98;80.90;97120.76;127938;1101;42649;-88
2021/05/30 09:58:05;;;;;;;7.98;6.88;;;;;;;10.88;81.35;97107.50;127961;1101;33845;-90
2021/05/30 10:00:35;;;;;;;10.75;7.70;;;;;;;10.86;81.51;97114.14;127919;1101;23482;-88
2021/05/30 10:03:06;;;;;;;7.90;6.15;;;;;;;10.95;81.91;97120.47;127828;1101;24716;-89
2021/05/30 10:05:38;;;;;;;10.28;6.73;;;;;;;10.99;81.15;97116.25;127733;1101;154953;-88
2021/05/30 10:08:08;;;;;;;9.40;6.68;;;;;;;11.12;81.55;97115.69;127848;1101;22791;-88
2021/05/30 10:10:38;;;;;;;8.85;6.20;;;;;;;11.42;82.02;97119.33;127782;1100;52218;-88
2021/05/30 10:13:08;;;;;;;9.13;6.18;;;;;;;11.78;81.10;97112.78;127870;1101;22798;-88
2021/05/30 10:15:39;;;;;;;9.28;7.03;;;;;;;11.96;80.64;97114.05;127893;1101;24550;-88
2021/05/30 10:18:14;;;;;;;7.85;6.55;;;;;;;12.21;80.31;97110.45;127975;1101;23592;-89
2021/05/30 10:20:46;;;;;;;7.43;5.60;;;;;;;12.57;79.76;97111.00;127826;1101;26139;-88
2021/05/30 10:23:18;;;;;;;8.30;6.33;;;;;;;12.96;80.34;97102.95;128112;1101;22765;-87
2021/05/30 10:25:49;;;;;;;10.63;7.43;;;;;;;13.47;79.63;97110.41;127907;1101;27035;-87
2021/05/30 10:28:18;;;;;;;;;;;;;;;13.60;77.01;97104.40;128059;1101;23329;-88
2021/05/30 10:30:51;;;;;;;5.67;4.80;;;;;;;13.68;78.21;97104.86;127887;1101;50313;-88
2021/05/30 10:33:23;;;;;;;6.80;5.10;;;;;;;13.90;75.63;97111.22;127828;1101;23016;-88
2021/05/30 10:35:55;;;;;;;6.30;4.58;;;;;;;13.86;73.59;97104.09;128038;1101;23706;-88
2021/05/30 10:38:39;;;;;;;6.33;4.27;;;;;;;13.74;74.06;97104.50;127928;1101;22828;-90
2021/05/30 10:41:17;;;;;;;6.80;4.75;;;;;;;13.80;74.33;97107.91;127741;1101;47255;-89
2021/05/30 10:43:48;;;;;;;5.45;4.35;;;;;;;13.80;74.11;97111.37;127823;1101;35885;-88
2021/05/30 10:46:19;;;;;;;7.08;5.50;;;;;;;13.73;73.54;97110.12;127835;1101;49590;-89
2021/05/30 10:49:07;;;;;;;5.90;4.90;;;;;;;13.77;73.77;97103.92;127867;1101;23617;-87
2021/05/30 10:51:47;;;;;;;5.23;4.30;;;;;;;13.68;72.20;97110.98;127900;1101;23878;-87
2021/05/30 10:54:17;;;;;;;;;;;;;;;13.54;73.23;97108.22;127868;1101;26008;-87
2021/05/30 10:56:57;;;;;;;4.93;4.13;;;;;;;13.59;73.43;97110.81;127844;1101;28752;-86
2021/05/30 10:59:27;;;;;;;;;;;;;;;13.40;71.95;97099.33;127867;1101;29878;-88
2021/05/30 11:02:01;;;;;;;5.35;4.43;;;;;;;13.28;73.23;97114.91;127875;1101;22761;-88
2021/05/30 11:04:36;;;;;;;6.70;4.58;;;;;;;13.27;73.61;97110.66;127783;1101;45785;-90
2021/05/30 11:07:09;;;;;;;7.40;4.48;;;;;;;13.35;73.78;97112.67;127865;1101;22781;-89
2021/05/30 11:10:01;;;;;;;5.25;3.93;;;;;;;13.68;74.56;97113.65;127817;1101;24498;-91
2021/05/30 11:12:34;;;;;;;5.45;3.55;;;;;;;14.11;74.00;97106.41;127727;1096;26245;-92
2021/05/30 11:15:27;;;;;;;5.00;3.65;;;;;;;14.28;72.56;97105.90;127805;1094;37103;-91
2021/05/30 11:17:59;;;;;;;5.03;3.80;;;;;;;14.55;72.85;97103.38;127780;1101;24375;-92
2021/05/30 11:20:48;;;;;;;6.83;4.68;;;;;;;14.50;70.91;97110.68;127751;1096;26758;-90
2021/05/30 11:23:21;;;;;;;5.25;3.93;;;;;;;14.22;71.22;97117.73;127858;1097;26267;-89
2021/05/30 11:25:54;;;;;;;3.73;2.85;;;;;;;13.56;70.13;97111.38;127872;1101;22786;-90
2021/05/30 11:28:26;;;;;;;4.00;3.23;;;;;;;12.91;72.05;97124.27;127912;1101;24445;-91
2021/05/30 11:31:00;;;;;;;3.98;3.53;;;;;;;12.63;73.65;97144.45;127938;1101;23159;-90
2021/05/30 11:33:43;;;;;;;4.68;3.58;;;;;;;12.50;74.49;97145.08;127897;1096;22787;-91
2021/05/30 11:36:31;;;;;;;5.53;3.78;;;;;;;12.46;75.53;97133.42;127885;1100;24358;-90
2021/05/30 11:39:10;;;;;;;3.30;2.80;;;;;;;12.26;74.72;97128.25;127885;1101;22843;-88
2021/05/30 11:41:44;;;;;;;2.78;2.45;;;;;;;12.17;74.96;97125.37;127864;1101;22807;-87
2021/05/30 11:44:16;;;;;;;4.70;3.35;;;;;;;11.99;75.89;97128.67;127863;1101;22784;-89
2021/05/30 11:46:51;;;;;;;4.55;3.53;;;;;;;11.96;76.97;97129.98;127888;1101;22925;-90